Time;durP1;ratioP1;P1;durP2;ratioP2;P2;SDS_P1;SDS_P2;PMS_P1;PMS_P2;Temp;Humidity;BMP_temperature;BMP_pressure;BME280_temperature;BME280_humidity;BME280_pressure;Samples;Min_cycle;Max_cycle;Signal;HPM_P1;HPM_P2
2021/12/22 00:02:08;;;;;;;27.52;18.02;;;-2.80;99.90;;;;;;4893201;29;20056;-96
2021/12/22 00:04:43;;;;;;;22.25;16.02;;;-2.80;99.90;;;;;;4899216;29;20024;-96
2021/12/22 00:07:10;;;;;;;23.13;16.35;;;-2.80;99.90;;;;;;4893563;29;20040;-96
2021/12/22 00:09:46;;;;;;;23.17;16.35;;;-2.80;99.90;;;;;;4902234;29;20087;-96
2021/12/22 00:12:22;;;;;;;23.65;16.25;;;-2.80;99.90;;;;;;4899417;29;20044;-96
2021/12/22 00:14:51;;;;;;;26.38;16.73;;;-2.90;99.90;;;;;;4911064;29;20048;-96
2021/12/22 00:17:36;;;;;;;22.65;15.05;;;-2.90;99.90;;;;;;4906628;29;20039;-96
2021/12/22 00:20:04;;;;;;;25.08;16.38;;;-2.90;99.90;;;;;;4910484;29;20024;-96
2021/12/22 00:22:30;;;;;;;26.27;16.88;;;-2.90;99.90;;;;;;4911267;29;20087;-96
2021/12/22 00:24:57;;;;;;;23.17;16.15;;;-3.00;99.90;;;;;;4900081;29;20040;-96
2021/12/22 00:27:23;;;;;;;25.48;15.70;;;-2.90;99.90;;;;;;4900577;29;20084;-96
2021/12/22 00:29:51;;;;;;;24.25;16.60;;;-3.00;99.90;;;;;;4928062;29;20040;-96
2021/12/22 00:34:55;;;;;;;26.42;16.33;;;-3.00;99.90;;;;;;5146147;23;20069;-96
2021/12/22 00:37:26;;;;;;;21.77;15.07;;;-3.00;99.90;;;;;;4970229;28;20054;-96
2021/12/22 00:39:54;;;;;;;22.67;14.95;;;-3.00;99.90;;;;;;4984778;28;20057;-96
2021/12/22 00:42:21;;;;;;;24.35;15.45;;;-3.00;99.90;;;;;;4972851;28;20073;-96
2021/12/22 00:44:51;;;;;;;24.92;15.27;;;-3.00;99.90;;;;;;4972093;28;20130;-96
2021/12/22 00:47:25;;;;;;;21.92;14.63;;;-3.00;99.90;;;;;;4976271;28;20050;-96
2021/12/22 00:49:53;;;;;;;24.52;16.02;;;-3.10;99.90;;;;;;4976282;28;20046;-96
2021/12/22 00:52:22;;;;;;;23.45;15.73;;;-3.10;99.90;;;;;;5142176;23;20034;-96
2021/12/22 00:54:48;;;;;;;22.20;14.80;;;-3.10;99.90;;;;;;4989009;28;20050;-96
2021/12/22 00:57:16;;;;;;;22.88;14.68;;;-3.10;99.90;;;;;;4977397;28;20035;-96
2021/12/22 00:59:43;;;;;;;24.05;15.40;;;-3.10;99.90;;;;;;4977837;28;20041;-96
2021/12/22 01:02:39;;;;;;;22.60;14.70;;;-3.00;99.90;;;;;;4969001;28;20046;-96
2021/12/22 01:05:08;;;;;;;22.92;14.35;;;-3.10;99.90;;;;;;4969601;28;20073;-96
2021/12/22 01:07:33;;;;;;;20.55;13.52;;;-3.10;99.90;;;;;;4977670;28;20054;-96
2021/12/22 01:09:59;;;;;;;22.73;13.40;;;-3.10;99.90;;;;;;4981252;28;20043;-96
2021/12/22 01:12:25;;;;;;;23.95;15.48;;;-3.10;99.90;;;;;;4976580;28;20073;-96
2021/12/22 01:14:51;;;;;;;22.50;15.57;;;-3.10;99.90;;;;;;4969014;28;20050;-96
2021/12/22 01:18:10;;;;;;;21.40;14.75;;;-3.10;99.90;;;;;;4973233;28;20055;-96
2021/12/22 01:26:20;;;;;;;23.58;13.98;;;-3.20;99.90;;;;;;4990483;28;20045;-96
2021/12/22 01:31:22;;;;;;;23.33;14.25;;;-3.30;99.90;;;;;;5253209;23;20042;-96
2021/12/22 01:33:57;;;;;;;21.33;14.30;;;-3.30;99.90;;;;;;4974133;28;20039;-96
2021/12/22 01:36:23;;;;;;;22.45;13.70;;;-3.30;99.90;;;;;;4979259;28;20047;-96
2021/12/22 01:38:49;;;;;;;21.67;14.07;;;-3.40;99.90;;;;;;4973817;28;20027;-96
2021/12/22 01:41:15;;;;;;;21.75;14.55;;;-3.40;99.90;;;;;;4993177;28;20069;-96
2021/12/22 01:43:41;;;;;;;22.45;14.50;;;-3.40;99.90;;;;;;4979436;28;20022;-96
2021/12/22 01:49:09;;;;;;;23.38;13.68;;;-3.30;99.90;;;;;;4983390;28;20054;-96
2021/12/22 01:49:37;;;;;;;20.42;13.35;;;-3.60;99.90;;;;;;4993391;28;20043;-96
2021/12/22 01:52:05;;;;;;;25.20;15.60;;;-3.50;99.90;;;;;;4972388;28;20035;-96
2021/12/22 01:55:05;;;;;;;26.92;16.90;;;-3.50;99.90;;;;;;4972139;28;20027;-96
2021/12/22 01:57:42;;;;;;;23.90;15.73;;;-3.60;99.90;;;;;;4966102;28;20043;-96
2021/12/22 02:00:09;;;;;;;21.25;14.45;;;-3.60;99.90;;;;;;4984427;28;20058;-96
2021/12/22 02:03:01;;;;;;;19.55;12.80;;;-3.60;99.90;;;;;;4976887;28;20053;-96
2021/12/22 02:05:27;;;;;;;22.02;14.60;;;-3.70;99.90;;;;;;4971138;28;20035;-96
2021/12/22 02:07:57;;;;;;;22.00;14.52;;;-3.70;99.90;;;;;;5002795;28;20093;-96
2021/12/22 02:10:35;;;;;;;21.67;13.52;;;-3.70;99.90;;;;;;5018766;23;20040;-96
2021/12/22 02:13:03;;;;;;;23.60;14.73;;;-3.70;99.90;;;;;;4945540;28;20096;-96
2021/12/22 02:20:53;;;;;;;23.92;15.30;;;-3.70;99.90;;;;;;5016964;23;20047;-96
2021/12/22 02:23:19;;;;;;;24.08;14.80;;;-3.80;99.90;;;;;;4962522;28;20037;-96
2021/12/22 02:25:56;;;;;;;20.67;13.70;;;-3.70;99.90;;;;;;4967526;28;20043;-96
2021/12/22 02:28:29;;;;;;;23.63;13.52;;;-3.80;99.90;;;;;;4967450;28;20046;-96
2021/12/22 02:30:55;;;;;;;21.75;14.48;;;-3.80;99.90;;;;;;4982942;28;20062;-96
2021/12/22 02:33:37;;;;;;;24.35;14.40;;;-3.80;99.90;;;;;;4965876;28;20059;-96
2021/12/22 02:38:43;;;;;;;22.80;13.20;;;-3.80;99.90;;;;;;4983197;28;20038;-96
2021/12/22 03:05:17;;;;;;;26.17;15.35;;;-3.80;99.90;;;;;;5002715;23;20031;-96
2021/12/22 03:07:43;;;;;;;25.17;13.45;;;-3.80;99.90;;;;;;4957963;28;20041;-96
2021/12/22 03:10:14;;;;;;;24.48;14.70;;;-3.90;99.90;;;;;;4957144;28;20059;-95
2021/12/22 05:43:38;;;;;;;26.38;14.07;;;-3.90;99.90;;;;;;4949416;29;20043;-96
2021/12/22 05:46:07;;;;;;;26.98;14.20;;;-3.90;99.90;;;;;;4931941;29;20031;-96
2021/12/22 05:51:08;;;;;;;25.15;14.48;;;-4.00;99.90;;;;;;5005349;23;20050;-96
2021/12/22 05:53:34;;;;;;;25.45;14.82;;;-3.90;99.90;;;;;;4956471;28;20086;-96
2021/12/22 06:13:23;;;;;;;26.55;14.88;;;-4.00;99.90;;;;;;5173045;23;20185;-96
2021/12/22 06:15:49;;;;;;;25.77;13.93;;;-4.00;99.90;;;;;;4962310;28;20035;-96
2021/12/22 06:18:18;;;;;;;25.05;13.60;;;-3.90;99.90;;;;;;4977937;28;20027;-95
2021/12/22 06:20:47;;;;;;;25.50;13.43;;;-4.00;99.90;;;;;;4943958;28;20027;-96
2021/12/22 06:23:13;;;;;;;27.48;14.50;;;-4.00;99.90;;;;;;4968344;28;20051;-94
2021/12/22 06:25:41;;;;;;;24.67;13.90;;;-4.00;99.90;;;;;;4930942;29;20039;-96
2021/12/22 06:28:07;;;;;;;27.20;15.40;;;-4.00;99.90;;;;;;4949910;28;20043;-95
2021/12/22 06:30:33;;;;;;;28.08;14.75;;;-4.00;99.90;;;;;;4937948;28;20115;-94
2021/12/22 06:32:59;;;;;;;24.00;12.75;;;-3.80;99.90;;;;;;4932804;28;20058;-94
2021/12/22 06:35:25;;;;;;;26.85;14.82;;;-4.00;99.90;;;;;;4947849;28;20054;-94
2021/12/22 06:37:51;;;;;;;26.08;13.68;;;-4.00;99.90;;;;;;4952780;28;20046;-96
2021/12/22 06:40:18;;;;;;;26.98;15.30;;;-4.00;99.90;;;;;;4925905;28;20043;-94
2021/12/22 06:42:44;;;;;;;23.35;12.27;;;-4.00;99.90;;;;;;4964490;28;20043;-96
2021/12/22 06:45:11;;;;;;;22.80;12.65;;;-3.90;99.90;;;;;;4943182;28;20057;-96
2021/12/22 06:47:38;;;;;;;29.45;14.85;;;-4.00;99.90;;;;;;4952363;28;20047;-95
2021/12/22 06:50:05;;;;;;;25.40;14.07;;;-4.00;99.90;;;;;;4944506;28;20047;-96
2021/12/22 06:52:31;;;;;;;24.80;12.95;;;-4.00;99.90;;;;;;4949473;28;20057;-95
2021/12/22 06:54:57;;;;;;;27.13;13.95;;;-4.00;99.90;;;;;;4937348;28;20413;-95
2021/12/22 06:57:23;;;;;;;24.25;13.43;;;-4.00;99.90;;;;;;4938885;28;20054;-96
2021/12/22 06:59:49;;;;;;;27.70;14.75;;;-4.00;99.90;;;;;;4927552;28;20040;-95
2021/12/22 07:02:16;;;;;;;27.25;15.35;;;-4.10;99.90;;;;;;4950541;28;20152;-94
2021/12/22 07:04:42;;;;;;;25.73;14.23;;;-4.00;99.90;;;;;;4963830;28;20481;-95
2021/12/22 07:07:07;;;;;;;23.60;13.13;;;-4.00;99.90;;;;;;4943712;28;20043;-95
2021/12/22 07:09:33;;;;;;;28.60;15.80;;;-4.00;99.90;;;;;;4920170;28;20054;-92
2021/12/22 07:11:59;;;;;;;28.48;15.57;;;-4.00;99.90;;;;;;4948233;28;20066;-94
2021/12/22 07:14:24;;;;;;;27.05;14.77;;;-4.00;99.90;;;;;;4952406;28;20598;-94
2021/12/22 07:16:50;;;;;;;29.70;16.30;;;-4.00;99.90;;;;;;4945268;28;20055;-96
2021/12/22 07:19:16;;;;;;;30.20;14.98;;;-4.00;99.90;;;;;;4933337;29;20121;-95
2021/12/22 07:21:43;;;;;;;29.73;16.70;;;-4.10;99.90;;;;;;4949519;28;20105;-95
2021/12/22 07:24:09;;;;;;;28.38;14.70;;;-4.10;99.90;;;;;;4946627;28;20043;-94
2021/12/22 07:26:34;;;;;;;28.35;13.52;;;-4.10;99.90;;;;;;4925437;28;20563;-95
2021/12/22 07:29:00;;;;;;;28.45;14.25;;;-4.10;99.90;;;;;;4938678;28;20051;-95
2021/12/22 07:31:26;;;;;;;29.10;16.13;;;-4.10;99.90;;;;;;4948941;28;20044;-96
2021/12/22 07:34:05;;;;;;;27.58;15.05;;;-4.10;99.90;;;;;;4951841;28;20047;-96
2021/12/22 07:36:30;;;;;;;25.90;14.02;;;-4.00;99.90;;;;;;4962125;28;20110;-96
2021/12/22 07:38:59;;;;;;;31.52;16.23;;;-4.00;99.90;;;;;;4971771;28;20046;-96
2021/12/22 07:41:26;;;;;;;31.10;16.10;;;-4.00;99.90;;;;;;4930967;28;20067;-96
2021/12/22 07:43:52;;;;;;;29.77;15.52;;;-4.00;99.90;;;;;;4945684;28;20138;-96
2021/12/22 07:46:17;;;;;;;30.73;14.82;;;-4.00;99.90;;;;;;4945111;29;20039;-96
2021/12/22 07:49:03;;;;;;;27.25;14.80;;;-4.00;99.90;;;;;;4942257;28;20071;-96
2021/12/22 07:51:29;;;;;;;31.17;15.02;;;-4.00;99.90;;;;;;4947022;28;20058;-96
2021/12/22 07:53:55;;;;;;;31.08;14.68;;;-4.10;99.90;;;;;;4934611;28;20039;-96
2021/12/22 07:56:21;;;;;;;26.83;14.55;;;-4.00;99.90;;;;;;4959379;28;20054;-95
2021/12/22 07:58:47;;;;;;;32.38;16.08;;;-4.00;99.90;;;;;;4922043;28;20093;-96
2021/12/22 08:01:13;;;;;;;30.98;15.20;;;-3.90;99.90;;;;;;4959542;28;20070;-91
2021/12/22 08:03:39;;;;;;;32.20;14.60;;;-3.90;99.90;;;;;;4946561;29;20039;-93
2021/12/22 08:06:04;;;;;;;28.33;15.00;;;-3.90;99.90;;;;;;4935322;28;20051;-92
2021/12/22 08:08:30;;;;;;;25.55;14.25;;;-3.90;99.90;;;;;;4945519;28;20047;-93
2021/12/22 08:10:55;;;;;;;29.60;15.38;;;-3.90;99.90;;;;;;4939770;28;20066;-92
2021/12/22 08:13:21;;;;;;;27.50;15.45;;;-3.90;99.90;;;;;;4925299;28;20090;-94
2021/12/22 08:15:47;;;;;;;25.92;13.45;;;-3.90;99.90;;;;;;4942320;28;20464;-92
2021/12/22 08:18:13;;;;;;;29.45;15.32;;;-3.80;99.90;;;;;;4954606;28;20138;-93
2021/12/22 08:20:39;;;;;;;29.13;15.52;;;-3.80;99.90;;;;;;4950959;28;20050;-95
2021/12/22 08:23:05;;;;;;;27.83;15.15;;;-3.80;99.90;;;;;;4974934;28;20130;-93
2021/12/22 08:25:31;;;;;;;29.05;15.73;;;-3.80;99.90;;;;;;4949357;28;20146;-92
2021/12/22 08:27:56;;;;;;;26.55;15.48;;;-3.80;99.90;;;;;;4944411;28;20062;-93
2021/12/22 08:30:22;;;;;;;29.40;13.90;;;-3.80;99.90;;;;;;4954985;28;20042;-93
2021/12/22 08:32:48;;;;;;;28.98;14.25;;;-3.70;99.90;;;;;;4952572;28;20050;-93
2021/12/22 08:35:15;;;;;;;29.35;16.55;;;-3.70;99.90;;;;;;4945564;28;20039;-94
2021/12/22 08:40:26;;;;;;;28.50;15.45;;;-3.60;99.90;;;;;;4943968;28;20050;-94
2021/12/22 08:42:52;;;;;;;30.75;15.30;;;-3.50;99.90;;;;;;4944987;28;20130;-92
2021/12/22 08:45:21;;;;;;;31.15;16.13;;;-3.50;99.90;;;;;;4938432;28;20046;-92
2021/12/22 08:47:47;;;;;;;26.90;14.80;;;-3.40;99.90;;;;;;4970053;28;20055;-94
2021/12/22 08:50:15;;;;;;;28.30;15.18;;;-3.40;99.90;;;;;;4947136;29;20049;-95
2021/12/22 08:52:40;;;;;;;30.42;16.02;;;-3.40;99.90;;;;;;4930994;28;20405;-92
2021/12/22 08:55:07;;;;;;;27.48;15.23;;;-3.30;99.90;;;;;;4945876;28;20489;-95
2021/12/22 08:57:34;;;;;;;34.65;15.85;;;-3.20;99.90;;;;;;4960257;28;20057;-94
2021/12/22 09:00:00;;;;;;;30.45;16.25;;;-3.20;99.90;;;;;;4931392;28;20046;-92
2021/12/22 09:02:26;;;;;;;31.92;17.00;;;-3.10;99.90;;;;;;4925904;28;20054;-92
2021/12/22 09:04:51;;;;;;;30.10;16.55;;;-3.10;99.90;;;;;;4937924;28;20042;-92
2021/12/22 09:07:17;;;;;;;27.77;15.50;;;-3.00;99.90;;;;;;4948764;28;20078;-92
2021/12/22 09:09:44;;;;;;;32.78;17.23;;;-3.00;99.90;;;;;;4942925;28;20051;-92
2021/12/22 09:12:09;;;;;;;27.25;15.80;;;-3.00;99.90;;;;;;4945953;29;20059;-92
2021/12/22 09:14:35;;;;;;;28.85;15.18;;;-2.90;99.90;;;;;;4932625;28;20047;-91
2021/12/22 09:17:02;;;;;;;30.65;16.30;;;-2.90;99.90;;;;;;4949207;28;20482;-94
2021/12/22 09:19:27;;;;;;;30.00;16.25;;;-2.80;99.90;;;;;;4945017;28;20039;-91
2021/12/22 09:21:53;;;;;;;36.25;18.20;;;-2.80;99.90;;;;;;4942138;28;20530;-91
2021/12/22 09:24:19;;;;;;;30.45;16.45;;;-2.80;99.90;;;;;;4966790;28;20047;-92
2021/12/22 09:26:45;;;;;;;31.15;15.98;;;-2.80;99.90;;;;;;4921962;28;20039;-93
2021/12/22 09:29:12;;;;;;;30.52;16.38;;;-2.70;99.90;;;;;;4942812;28;20080;-93
2021/12/22 09:31:38;;;;;;;30.80;17.23;;;-2.70;99.90;;;;;;4924079;28;20130;-91
2021/12/22 09:34:05;;;;;;;27.75;16.50;;;-2.70;99.90;;;;;;4921696;29;20055;-94
2021/12/22 09:36:31;;;;;;;29.55;16.00;;;-2.60;99.90;;;;;;4947513;28;20051;-93
2021/12/22 09:38:57;;;;;;;30.90;15.40;;;-2.60;99.90;;;;;;4935911;28;20050;-91
2021/12/22 09:41:22;;;;;;;28.48;16.50;;;-2.50;99.90;;;;;;4927884;28;20043;-91
2021/12/22 09:43:51;;;;;;;29.60;16.45;;;-2.50;99.90;;;;;;4940492;28;20039;-93
2021/12/22 09:46:20;;;;;;;30.13;15.52;;;-2.50;99.90;;;;;;4951010;28;20132;-93
2021/12/22 09:53:50;;;;;;;31.67;16.42;;;-2.30;99.90;;;;;;4941390;28;20047;-92
2021/12/22 09:56:21;;;;;;;33.67;17.35;;;-2.30;99.90;;;;;;4923128;28;20051;-92
2021/12/22 09:58:48;;;;;;;31.87;16.97;;;-2.10;99.90;;;;;;4928408;28;20170;-92
2021/12/22 10:01:15;;;;;;;34.15;17.80;;;-2.20;99.90;;;;;;4949781;28;20047;-93
2021/12/22 10:03:41;;;;;;;30.70;16.95;;;-2.10;99.90;;;;;;5006448;23;20115;-96
2021/12/22 10:06:08;;;;;;;30.80;16.63;;;-2.00;99.90;;;;;;4980242;28;20090;-96
2021/12/22 10:08:39;;;;;;;29.45;17.10;;;-1.90;99.90;;;;;;4951853;28;20047;-96
2021/12/22 10:11:12;;;;;;;34.90;18.38;;;-2.00;99.90;;;;;;4946995;28;20040;-96
2021/12/22 10:13:43;;;;;;;31.77;17.30;;;-1.90;99.90;;;;;;4952232;28;20065;-96
2021/12/22 10:16:14;;;;;;;29.00;17.13;;;-1.90;99.90;;;;;;4956778;28;20053;-96
2021/12/22 10:18:41;;;;;;;31.98;17.70;;;-1.80;99.90;;;;;;4941981;28;20440;-96
2021/12/22 10:21:18;;;;;;;32.25;16.00;;;-1.70;99.90;;;;;;4939497;28;20043;-96
2021/12/22 10:23:50;;;;;;;27.90;17.00;;;-1.70;99.90;;;;;;4956618;28;20054;-95
2021/12/22 10:26:19;;;;;;;28.30;15.88;;;-1.60;99.90;;;;;;4932843;28;20063;-96
2021/12/22 10:29:04;;;;;;;31.88;17.95;;;-1.50;99.90;;;;;;4949609;29;20048;-96
2021/12/22 10:31:45;;;;;;;28.70;16.25;;;-1.50;99.90;;;;;;4947353;28;20182;-94
2021/12/22 10:34:18;;;;;;;28.10;16.10;;;-1.40;99.90;;;;;;4947874;28;20042;-96
2021/12/22 10:36:55;;;;;;;26.70;14.82;;;-1.40;99.90;;;;;;4968892;28;20032;-96
2021/12/22 10:39:32;;;;;;;26.58;15.30;;;-1.30;99.90;;;;;;4965577;28;20037;-95
2021/12/22 10:42:09;;;;;;;29.25;16.17;;;-1.30;99.90;;;;;;4959358;28;20126;-96
2021/12/22 10:44:40;;;;;;;29.35;16.60;;;-1.20;99.90;;;;;;4937967;28;20145;-95
2021/12/22 10:49:14;;;;;;;25.40;15.45;;;-1.20;99.90;;;;;;4930898;28;20047;-95
2021/12/22 10:50:23;;;;;;;28.48;16.55;;;-1.10;99.90;;;;;;4945554;28;20048;-95
2021/12/22 10:52:50;;;;;;;26.98;15.52;;;-1.00;99.90;;;;;;4935260;28;20106;-96
2021/12/22 10:55:16;;;;;;;26.88;15.93;;;-1.00;99.90;;;;;;4945173;28;20035;-95
2021/12/22 10:57:44;;;;;;;25.35;14.95;;;-0.90;99.90;;;;;;4933530;28;20053;-95
2021/12/22 11:00:19;;;;;;;23.00;14.45;;;-0.90;99.90;;;;;;4943837;28;20122;-95
2021/12/22 11:03:01;;;;;;;23.98;14.48;;;-0.80;99.90;;;;;;4944675;28;20070;-96
2021/12/22 11:05:30;;;;;;;24.38;14.25;;;-0.80;99.90;;;;;;4946175;28;20051;-96
2021/12/22 11:07:57;;;;;;;23.80;14.63;;;-0.70;99.90;;;;;;4928806;28;20050;-95
2021/12/22 11:10:29;;;;;;;23.08;14.40;;;-0.70;99.90;;;;;;4943477;28;20126;-95
2021/12/22 11:13:04;;;;;;;25.45;15.32;;;-0.50;99.90;;;;;;4946995;28;20432;-96
2021/12/22 11:15:29;;;;;;;24.95;15.57;;;-0.40;99.90;;;;;;4957693;28;20047;-96
2021/12/22 11:17:55;;;;;;;23.98;14.95;;;-0.40;99.90;;;;;;4960782;28;20051;-96
2021/12/22 11:20:23;;;;;;;24.20;15.63;;;-0.40;99.90;;;;;;4931368;28;20186;-95
2021/12/22 11:22:58;;;;;;;25.00;15.18;;;-0.40;99.90;;;;;;4930256;28;20058;-95
2021/12/22 11:25:24;;;;;;;25.55;15.25;;;-0.30;99.90;;;;;;4946710;28;20130;-96
2021/12/22 11:27:51;;;;;;;24.98;15.38;;;-0.30;99.90;;;;;;4940082;28;20047;-96
2021/12/22 11:30:17;;;;;;;20.50;13.45;;;-0.30;99.90;;;;;;4944339;28;20055;-96
2021/12/22 11:32:43;;;;;;;24.80;14.20;;;-0.20;99.90;;;;;;4944333;28;20110;-96
2021/12/22 11:35:12;;;;;;;23.25;14.55;;;-0.20;99.90;;;;;;4941909;28;20447;-96
2021/12/22 11:37:37;;;;;;;23.17;14.25;;;-0.20;99.90;;;;;;4944561;28;20047;-96
2021/12/22 11:40:08;;;;;;;23.30;15.05;;;-0.20;99.90;;;;;;4936923;28;20062;-96
2021/12/22 11:42:37;;;;;;;23.57;15.00;;;-0.20;99.90;;;;;;4935935;29;20105;-96
2021/12/22 11:45:08;;;;;;;23.45;14.88;;;-0.20;99.90;;;;;;4945407;28;20047;-94
2021/12/22 11:47:45;;;;;;;23.77;15.55;;;-0.20;99.90;;;;;;4941960;28;20484;-95
2021/12/22 11:50:27;;;;;;;23.45;14.38;;;-0.20;99.90;;;;;;4938980;28;20046;-94
2021/12/22 11:52:52;;;;;;;;;;;-0.20;99.90;;;;;;4923481;28;20109;-96
2021/12/22 11:55:27;;;;;;;23.85;15.48;;;-0.20;99.90;;;;;;4951551;28;20331;-93
2021/12/22 11:58:26;;;;;;;22.83;14.15;;;-0.30;99.90;;;;;;4936782;28;20047;-93
2021/12/22 12:00:55;;;;;;;23.05;13.95;;;-0.20;99.90;;;;;;4924690;28;20865;-95
2021/12/22 12:03:36;;;;;;;26.10;13.80;;;-0.20;99.90;;;;;;4940091;28;20059;-95
2021/12/22 12:06:12;;;;;;;23.05;15.90;;;-0.10;99.90;;;;;;4977760;28;20055;-95
2021/12/22 12:08:47;;;;;;;22.63;16.08;;;-0.10;99.90;;;;;;4952355;28;20054;-95
2021/12/22 12:11:17;;;;;;;22.52;15.77;;;0.00;99.90;;;;;;4979158;28;20173;-96
2021/12/22 12:22:09;;;;;;;24.00;14.48;;;0.20;99.90;;;;;;4957457;28;20051;-95
2021/12/22 12:24:38;;;;;;;23.13;14.90;;;0.20;99.90;;;;;;4968448;28;20055;-96
2021/12/22 12:27:29;;;;;;;24.13;14.68;;;0.30;99.90;;;;;;4944456;28;20050;-95
2021/12/22 12:30:04;;;;;;;24.67;14.70;;;0.30;99.90;;;;;;4965921;28;20046;-95
2021/12/22 12:32:39;;;;;;;24.05;14.55;;;0.40;99.90;;;;;;4966795;28;20047;-95
2021/12/22 12:35:23;;;;;;;24.20;15.95;;;0.40;99.90;;;;;;4950981;28;20039;-95
2021/12/22 12:38:07;;;;;;;22.60;14.07;;;0.50;99.90;;;;;;4955905;28;20030;-95
2021/12/22 12:40:55;;;;;;;22.73;14.15;;;0.50;99.90;;;;;;4964828;28;20077;-96
2021/12/22 12:46:20;;;;;;;24.25;14.70;;;0.50;99.90;;;;;;4952970;28;20443;-96
2021/12/22 12:49:05;;;;;;;21.65;14.73;;;0.40;99.90;;;;;;4983731;28;20074;-96
2021/12/22 12:51:32;;;;;;;22.13;14.30;;;0.40;99.90;;;;;;4960920;28;20127;-94
2021/12/22 12:54:06;;;;;;;22.83;14.60;;;0.40;99.90;;;;;;4954669;28;20102;-94
2021/12/22 12:56:33;;;;;;;21.92;13.90;;;0.30;99.90;;;;;;4944120;28;20043;-95
2021/12/22 12:59:12;;;;;;;23.17;13.90;;;0.30;99.90;;;;;;4960069;28;20089;-94
2021/12/22 13:01:47;;;;;;;25.52;14.00;;;0.30;99.90;;;;;;4948066;28;20304;-94
2021/12/22 13:04:31;;;;;;;22.83;13.95;;;0.30;99.90;;;;;;4933597;28;20063;-95
2021/12/22 13:06:59;;;;;;;24.00;14.30;;;0.30;99.90;;;;;;4955095;28;20082;-95
2021/12/22 13:09:49;;;;;;;23.70;14.57;;;0.20;99.90;;;;;;4930851;28;20243;-95
2021/12/22 13:17:43;;;;;;;21.23;14.40;;;0.20;99.90;;;;;;4947550;29;20526;-94
2021/12/22 13:20:11;;;;;;;21.20;14.43;;;0.20;99.90;;;;;;4950726;28;20085;-94
2021/12/22 13:22:39;;;;;;;22.40;14.48;;;0.20;99.90;;;;;;4960315;28;20110;-94
2021/12/22 13:25:11;;;;;;;23.58;14.57;;;0.10;99.90;;;;;;4969947;28;20075;-94
2021/12/22 13:27:43;;;;;;;21.58;14.32;;;0.10;99.90;;;;;;4973222;28;20373;-93
2021/12/22 13:30:09;;;;;;;;;;;0.10;99.90;;;;;;4944323;28;20586;-94
2021/12/22 13:32:35;;;;;;;23.50;14.70;;;0.10;99.90;;;;;;4931949;28;19925;-96
2021/12/22 13:35:01;;;;;;;22.70;13.85;;;0.10;99.90;;;;;;4953332;28;20039;-94
2021/12/22 13:37:27;;;;;;;23.83;14.90;;;0.10;99.90;;;;;;4939843;28;20101;-95
2021/12/22 13:39:53;;;;;;;23.65;14.77;;;0.10;99.90;;;;;;4944181;28;20051;-94
2021/12/22 13:42:19;;;;;;;21.25;14.10;;;0.20;99.90;;;;;;4952423;28;20046;-95
2021/12/22 13:44:44;;;;;;;23.30;14.55;;;0.20;99.90;;;;;;4943164;29;20171;-94
2021/12/22 13:47:10;;;;;;;23.35;15.10;;;0.20;99.90;;;;;;4942672;28;20062;-95
2021/12/22 13:49:36;;;;;;;22.67;13.95;;;0.20;99.90;;;;;;4936879;28;20047;-95
2021/12/22 13:52:03;;;;;;;24.95;15.52;;;0.30;99.90;;;;;;4927518;28;20055;-94
2021/12/22 13:54:32;;;;;;;23.58;14.90;;;0.20;99.90;;;;;;4944222;29;20043;-94
2021/12/22 13:57:06;;;;;;;25.15;15.25;;;0.20;99.90;;;;;;4953345;28;20047;-94
2021/12/22 13:59:34;;;;;;;21.40;14.25;;;0.20;99.90;;;;;;4941534;28;20050;-94
2021/12/22 14:02:03;;;;;;;25.15;15.50;;;0.20;99.90;;;;;;4949832;29;20054;-94
2021/12/22 14:04:36;;;;;;;23.73;16.33;;;0.10;99.90;;;;;;4938035;28;20071;-95
2021/12/22 14:07:23;;;;;;;22.92;15.15;;;0.10;99.90;;;;;;4949666;28;20415;-95
2021/12/22 14:09:52;;;;;;;23.13;14.43;;;0.10;99.90;;;;;;4941908;28;20047;-94
2021/12/22 14:12:26;;;;;;;23.60;14.85;;;0.00;99.90;;;;;;4957898;28;20031;-94
2021/12/22 14:14:57;;;;;;;23.88;14.40;;;0.00;99.90;;;;;;4938408;28;20070;-94
2021/12/22 14:17:33;;;;;;;22.35;14.95;;;-0.10;99.90;;;;;;4948434;28;20069;-95
2021/12/22 14:20:03;;;;;;;25.90;16.20;;;0.00;99.90;;;;;;4967496;28;20547;-94
2021/12/22 14:22:32;;;;;;;25.50;15.68;;;-0.10;99.90;;;;;;4952429;28;20043;-94
2021/12/22 14:25:13;;;;;;;25.33;16.10;;;-0.10;99.90;;;;;;4944762;28;20042;-95
2021/12/22 14:27:48;;;;;;;25.23;14.67;;;-0.10;99.90;;;;;;4952273;28;20488;-95
2021/12/22 14:30:34;;;;;;;24.17;15.63;;;-0.10;99.90;;;;;;4971295;28;20326;-94
2021/12/22 14:33:05;;;;;;;27.23;16.48;;;-0.10;99.90;;;;;;4949034;28;20054;-92
2021/12/22 14:35:55;;;;;;;26.88;16.55;;;-0.10;99.90;;;;;;4926372;28;20043;-91
2021/12/22 14:38:23;;;;;;;24.35;15.57;;;-0.10;99.90;;;;;;4940850;28;20082;-95
2021/12/22 14:40:59;;;;;;;29.17;15.75;;;0.00;99.90;;;;;;4933317;28;20039;-92
2021/12/22 14:43:38;;;;;;;27.02;16.13;;;0.00;99.90;;;;;;4925487;28;20507;-93
2021/12/22 14:46:04;;;;;;;22.80;15.13;;;0.00;99.90;;;;;;4947217;28;20062;-94
2021/12/22 14:48:33;;;;;;;26.60;17.25;;;-0.10;99.90;;;;;;4933330;28;20858;-95
2021/12/22 14:51:01;;;;;;;27.33;15.90;;;-0.10;99.90;;;;;;4933041;29;20443;-93
2021/12/22 14:53:33;;;;;;;26.42;15.35;;;-0.10;99.90;;;;;;4946237;28;20046;-94
2021/12/22 14:56:00;;;;;;;24.55;15.65;;;-0.20;99.90;;;;;;4946505;28;20073;-94
2021/12/22 14:58:28;;;;;;;29.77;17.65;;;-0.20;99.90;;;;;;4962021;28;20039;-94
2021/12/22 15:00:54;;;;;;;25.17;15.77;;;-0.30;99.90;;;;;;4946771;28;20480;-93
2021/12/22 15:03:19;;;;;;;26.15;15.65;;;-0.30;99.90;;;;;;4940454;28;20053;-94
2021/12/22 15:06:22;;;;;;;27.33;16.67;;;-0.40;99.90;;;;;;4937241;28;20055;-93
2021/12/22 15:08:48;;;;;;;26.65;15.93;;;-0.40;99.90;;;;;;4863084;29;20064;-94
2021/12/22 15:11:15;;;;;;;25.08;14.85;;;-0.50;99.90;;;;;;4866272;29;20140;-94
2021/12/22 15:13:41;;;;;;;27.00;16.90;;;-0.60;99.90;;;;;;4871079;29;20055;-92
2021/12/22 15:16:08;;;;;;;23.38;14.60;;;-0.60;99.90;;;;;;4872762;29;20072;-92
2021/12/22 15:18:33;;;;;;;25.15;15.43;;;-0.70;99.90;;;;;;4870434;29;20123;-93
2021/12/22 15:21:00;;;;;;;28.25;16.13;;;-0.70;99.90;;;;;;4874834;29;20116;-94
2021/12/22 15:23:25;;;;;;;28.38;16.08;;;-0.70;99.90;;;;;;4874086;29;20082;-95
2021/12/22 15:25:51;;;;;;;25.50;15.05;;;-0.70;99.90;;;;;;4884993;29;20047;-94
2021/12/22 15:28:18;;;;;;;26.52;16.45;;;-0.80;99.90;;;;;;4866723;29;20107;-94
2021/12/22 15:30:48;;;;;;;23.27;14.95;;;-0.80;99.90;;;;;;4875477;29;20068;-95
2021/12/22 15:33:34;;;;;;;25.45;14.73;;;-0.90;99.90;;;;;;4867884;29;20048;-95
2021/12/22 15:36:01;;;;;;;23.13;14.05;;;-0.90;99.90;;;;;;4883761;29;20067;-95
2021/12/22 15:38:26;;;;;;;26.30;16.30;;;-0.90;99.90;;;;;;4856898;29;20052;-95
2021/12/22 15:40:54;;;;;;;25.20;15.55;;;-1.00;99.90;;;;;;4869054;29;20405;-95
2021/12/22 15:43:20;;;;;;;27.08;15.85;;;-1.00;99.90;;;;;;4931480;29;20063;-95
2021/12/22 15:45:46;;;;;;;25.98;15.30;;;-1.00;99.90;;;;;;4945372;28;20043;-93
2021/12/22 15:48:13;;;;;;;25.70;15.02;;;-1.00;99.90;;;;;;4930735;28;20638;-95
2021/12/22 15:50:40;;;;;;;26.00;14.07;;;-1.00;99.90;;;;;;4941779;28;20051;-95
2021/12/22 15:53:06;;;;;;;22.85;14.45;;;-1.00;99.90;;;;;;4922508;28;20051;-94
2021/12/22 15:55:32;;;;;;;24.70;15.30;;;-1.00;99.90;;;;;;4925768;28;20075;-95
2021/12/22 15:58:01;;;;;;;24.80;14.52;;;-1.10;99.90;;;;;;4943418;28;20106;-95
2021/12/22 16:00:29;;;;;;;24.92;15.18;;;-1.10;99.90;;;;;;4946522;28;20480;-95
2021/12/22 16:02:56;;;;;;;24.02;15.73;;;-1.10;99.90;;;;;;4962203;28;20047;-94
2021/12/22 16:05:22;;;;;;;26.27;15.52;;;-1.10;99.90;;;;;;4910891;28;20044;-93
2021/12/22 16:07:48;;;;;;;24.55;15.90;;;-1.10;99.90;;;;;;4923686;28;20047;-94
2021/12/22 16:10:15;;;;;;;27.35;16.20;;;-1.10;99.90;;;;;;4938744;28;20046;-93
2021/12/22 16:12:41;;;;;;;24.75;16.00;;;-1.10;99.90;;;;;;4932797;28;20069;-94
2021/12/22 16:15:09;;;;;;;24.73;15.93;;;-1.10;99.90;;;;;;4927716;28;20059;-95
2021/12/22 16:17:35;;;;;;;26.20;15.55;;;-1.10;99.90;;;;;;4944794;28;20047;-93
2021/12/22 16:20:03;;;;;;;24.65;14.35;;;-1.10;99.90;;;;;;4924386;28;20043;-93
2021/12/22 16:22:29;;;;;;;25.90;15.70;;;-1.20;99.90;;;;;;4919719;28;20218;-93
2021/12/22 16:24:55;;;;;;;26.55;15.75;;;-1.20;99.90;;;;;;4938542;28;20039;-92
2021/12/22 16:27:21;;;;;;;23.85;15.13;;;-1.20;99.90;;;;;;4940445;28;20051;-94
2021/12/22 16:29:46;;;;;;;23.05;14.40;;;-1.20;99.90;;;;;;4951914;28;20050;-93
2021/12/22 16:32:12;;;;;;;22.67;14.07;;;-1.20;99.90;;;;;;4956392;28;20058;-93
2021/12/22 16:34:38;;;;;;;27.48;16.23;;;-1.20;99.90;;;;;;4952905;28;20051;-94
2021/12/22 16:37:04;;;;;;;22.25;13.65;;;-1.30;99.90;;;;;;4932081;28;20059;-94
2021/12/22 16:39:29;;;;;;;26.50;15.85;;;-1.30;99.90;;;;;;4921108;28;20078;-92
2021/12/22 16:41:55;;;;;;;23.88;14.93;;;-1.30;99.90;;;;;;4937508;28;20567;-92